Time;durP1;ratioP1;P1;durP2;ratioP2;P2;SDS_P1;SDS_P2;PMS_P1;PMS_P2;Temp;Humidity;BMP_temperature;BMP_pressure;BME280_temperature;BME280_humidity;BME280_pressure;Samples;Min_cycle;Max_cycle;Signal;HPM_P1;HPM_P2
2022/10/31 00:00:31;;;;;;;17.13;6.68;;;9.90;99.90;;;;;;5046401;28;20029;-89
2022/10/31 00:02:57;;;;;;;12.20;7.20;;;9.80;99.90;;;;;;5076765;28;20045;-90
2022/10/31 00:05:23;;;;;;;14.88;8.13;;;9.80;99.90;;;;;;5051523;28;20041;-91
2022/10/31 00:07:52;;;;;;;15.20;7.22;;;9.80;99.90;;;;;;5048447;28;20366;-90
2022/10/31 00:10:19;;;;;;;14.45;6.68;;;9.80;99.90;;;;;;5047986;28;20038;-90
2022/10/31 00:12:45;;;;;;;14.85;7.47;;;9.80;99.90;;;;;;5045169;28;20025;-90
2022/10/31 00:15:11;;;;;;;14.63;7.20;;;9.80;99.90;;;;;;5052621;28;20041;-90
2022/10/31 00:17:37;;;;;;;16.05;7.65;;;9.80;99.90;;;;;;5050496;28;20489;-91
2022/10/31 00:20:04;;;;;;;10.40;6.85;;;9.80;99.90;;;;;;5045673;28;20037;-89
2022/10/31 00:22:30;;;;;;;14.77;6.22;;;9.80;99.90;;;;;;5039621;28;20030;-90
2022/10/31 00:24:56;;;;;;;13.70;7.20;;;9.80;99.90;;;;;;5054809;28;20024;-90
2022/10/31 00:27:22;;;;;;;13.32;7.38;;;9.80;99.90;;;;;;5053620;28;20037;-90
2022/10/31 00:29:48;;;;;;;11.52;6.57;;;9.70;99.90;;;;;;5036572;28;20033;-90
2022/10/31 00:32:15;;;;;;;15.40;6.60;;;9.70;99.90;;;;;;5051997;28;20041;-89
2022/10/31 00:34:41;;;;;;;12.90;6.63;;;9.70;99.90;;;;;;5056365;28;20033;-89
2022/10/31 00:37:07;;;;;;;11.68;6.50;;;9.70;99.90;;;;;;5069455;28;20126;-88
2022/10/31 00:39:35;;;;;;;14.95;7.65;;;9.70;99.90;;;;;;5048332;28;20045;-91
2022/10/31 00:42:01;;;;;;;15.30;6.35;;;9.70;99.90;;;;;;5066914;28;20370;-90
2022/10/31 00:44:27;;;;;;;15.98;8.48;;;9.60;99.90;;;;;;5051585;28;20021;-89
2022/10/31 00:46:54;;;;;;;16.27;7.70;;;9.60;99.90;;;;;;5058958;28;20025;-89
2022/10/31 00:49:21;;;;;;;12.88;6.70;;;9.60;99.90;;;;;;5061593;28;20028;-89
2022/10/31 00:51:48;;;;;;;9.82;6.25;;;9.50;99.90;;;;;;5057811;28;20038;-89
2022/10/31 00:54:14;;;;;;;12.75;7.28;;;9.40;99.90;;;;;;5040594;28;20056;-89
2022/10/31 00:56:41;;;;;;;14.25;6.72;;;9.30;99.90;;;;;;5023903;28;20041;-90
2022/10/31 00:59:08;;;;;;;13.65;7.20;;;9.30;99.90;;;;;;5052741;28;20041;-89
2022/10/31 01:01:36;;;;;;;12.30;6.60;;;9.40;99.90;;;;;;5047252;28;20048;-90
2022/10/31 01:04:03;;;;;;;24.20;8.88;;;9.40;99.90;;;;;;5047691;28;20485;-89
2022/10/31 01:06:31;;;;;;;18.83;6.93;;;9.30;99.90;;;;;;5041916;28;20386;-89
2022/10/31 01:08:57;;;;;;;13.65;7.20;;;9.40;99.90;;;;;;5053078;28;20033;-89
2022/10/31 01:11:25;;;;;;;16.42;8.20;;;9.30;99.90;;;;;;5084841;28;20045;-90
2022/10/31 01:13:53;;;;;;;11.82;7.35;;;9.30;99.90;;;;;;5038628;28;20125;-90
2022/10/31 01:16:22;;;;;;;13.98;7.25;;;9.30;99.90;;;;;;5023193;28;20040;-89
2022/10/31 01:18:51;;;;;;;15.32;6.15;;;9.30;99.90;;;;;;5051425;28;20029;-89
2022/10/31 01:21:22;;;;;;;11.25;6.53;;;9.20;99.90;;;;;;5034809;28;20040;-89
2022/10/31 01:23:50;;;;;;;12.32;6.50;;;9.10;99.90;;;;;;5051752;28;20068;-89
2022/10/31 01:26:20;;;;;;;10.93;6.13;;;9.20;99.90;;;;;;5054542;28;20043;-89
2022/10/31 01:28:52;;;;;;;10.35;5.72;;;9.10;99.90;;;;;;5033326;28;20044;-89
2022/10/31 01:31:20;;;;;;;12.30;6.57;;;9.10;99.90;;;;;;4991102;28;20526;-89
2022/10/31 01:33:47;;;;;;;11.60;5.63;;;9.00;99.90;;;;;;5013651;28;20050;-89
2022/10/31 01:36:26;;;;;;;9.80;6.30;;;9.00;99.90;;;;;;5005376;28;20025;-89
2022/10/31 01:38:56;;;;;;;16.20;7.80;;;9.00;99.90;;;;;;5031374;28;20056;-89
2022/10/31 01:41:26;;;;;;;12.00;6.03;;;9.00;99.90;;;;;;4997492;28;20034;-89
2022/10/31 01:43:58;;;;;;;11.13;6.15;;;9.00;99.90;;;;;;4999457;28;20053;-89
2022/10/31 01:46:32;;;;;;;11.63;6.88;;;9.00;99.90;;;;;;5008494;28;20038;-89
2022/10/31 01:49:03;;;;;;;13.02;5.57;;;9.00;99.90;;;;;;5025151;28;20434;-88
2022/10/31 01:51:34;;;;;;;14.75;6.50;;;9.00;99.90;;;;;;4995210;28;20042;-89
2022/10/31 01:54:06;;;;;;;14.20;6.05;;;9.00;99.90;;;;;;5014583;28;20048;-88
2022/10/31 01:56:38;;;;;;;14.65;7.32;;;9.00;99.90;;;;;;5018638;28;20033;-89
2022/10/31 01:59:10;;;;;;;13.57;6.85;;;9.10;99.90;;;;;;5019823;28;20042;-88
2022/10/31 02:01:37;;;;;;;11.65;6.40;;;9.00;99.90;;;;;;5046479;28;20060;-89
2022/10/31 02:04:04;;;;;;;15.02;6.28;;;9.00;99.90;;;;;;5050702;28;20049;-89
2022/10/31 02:06:53;;;;;;;11.18;6.35;;;9.10;99.90;;;;;;5039317;28;20033;-89
2022/10/31 02:09:23;;;;;;;11.75;6.32;;;9.10;99.90;;;;;;5033527;28;20025;-89
2022/10/31 02:11:56;;;;;;;10.90;6.15;;;9.10;99.90;;;;;;5047893;28;20041;-89
2022/10/31 02:14:24;;;;;;;11.15;5.72;;;9.10;99.90;;;;;;5031563;28;20390;-89
2022/10/31 02:16:51;;;;;;;11.27;7.15;;;9.10;99.90;;;;;;5032076;28;20038;-88
2022/10/31 02:19:33;;;;;;;9.93;5.63;;;9.00;99.90;;;;;;5047291;28;20045;-89
2022/10/31 02:22:23;;;;;;;11.18;5.95;;;9.00;99.90;;;;;;5023580;28;20037;-89
2022/10/31 02:25:08;;;;;;;11.88;7.03;;;9.10;99.90;;;;;;5047363;28;20041;-89
2022/10/31 02:27:49;;;;;;;10.18;6.22;;;9.10;99.90;;;;;;5038535;28;20037;-89
2022/10/31 02:30:22;;;;;;;11.20;6.53;;;9.10;99.90;;;;;;5041043;28;20029;-89
2022/10/31 02:33:14;;;;;;;11.10;6.10;;;9.10;99.90;;;;;;5051332;28;20029;-89
2022/10/31 02:35:55;;;;;;;15.13;6.47;;;9.20;99.90;;;;;;5050541;28;20040;-89
2022/10/31 02:38:51;;;;;;;10.10;6.10;;;9.10;99.90;;;;;;5037316;28;20033;-89
2022/10/31 02:41:35;;;;;;;11.00;5.55;;;9.00;99.90;;;;;;5050177;28;20299;-89
2022/10/31 02:44:09;;;;;;;8.77;5.60;;;8.90;99.90;;;;;;5052407;28;20055;-88
2022/10/31 02:46:58;;;;;;;10.88;5.95;;;8.90;99.90;;;;;;5052067;28;20040;-89
2022/10/31 02:49:38;;;;;;;8.82;5.80;;;8.90;99.90;;;;;;5034138;28;20077;-89
2022/10/31 02:52:23;;;;;;;15.07;8.32;;;8.90;99.90;;;;;;5058355;28;20466;-89
2022/10/31 02:54:50;;;;;;;9.23;6.25;;;8.90;99.90;;;;;;5054024;28;20037;-88
2022/10/31 02:57:30;;;;;;;15.25;5.90;;;8.90;99.90;;;;;;5050419;28;20034;-89
2022/10/31 03:00:06;;;;;;;7.80;4.67;;;9.00;99.90;;;;;;5058730;28;20037;-89
2022/10/31 03:02:54;;;;;;;15.70;6.50;;;8.90;99.90;;;;;;5043410;28;20144;-89
2022/10/31 03:05:27;;;;;;;13.68;5.93;;;8.80;99.90;;;;;;5042076;28;20037;-89
2022/10/31 03:08:09;;;;;;;11.93;6.43;;;8.90;99.90;;;;;;5043917;28;20021;-89
2022/10/31 03:11:00;;;;;;;13.43;6.75;;;8.80;99.90;;;;;;5051426;28;20041;-89
2022/10/31 03:13:44;;;;;;;12.32;6.55;;;8.80;99.90;;;;;;5042804;28;20037;-89
2022/10/31 03:16:37;;;;;;;14.18;5.70;;;8.80;99.90;;;;;;5045509;28;20033;-90
2022/10/31 03:19:05;;;;;;;18.58;6.90;;;8.80;99.90;;;;;;5031293;28;20038;-89
2022/10/31 03:21:45;;;;;;;10.85;5.43;;;8.70;99.90;;;;;;5064529;28;20470;-89
2022/10/31 03:24:14;;;;;;;11.35;6.35;;;8.70;99.90;;;;;;5053211;28;20045;-87
2022/10/31 03:26:48;;;;;;;11.07;6.45;;;8.70;99.90;;;;;;5040467;28;20033;-90
2022/10/31 03:29:18;;;;;;;11.05;6.43;;;8.70;99.90;;;;;;5049698;28;20047;-89
2022/10/31 03:32:08;;;;;;;14.77;6.75;;;8.70;99.90;;;;;;5080543;28;20037;-89
2022/10/31 03:34:38;;;;;;;14.70;7.70;;;8.70;99.90;;;;;;5067603;28;20064;-89
2022/10/31 03:37:08;;;;;;;14.15;8.02;;;8.80;99.90;;;;;;5052292;28;20032;-89
2022/10/31 03:39:37;;;;;;;12.18;6.20;;;8.80;99.90;;;;;;5031850;28;20375;-89
2022/10/31 03:42:13;;;;;;;10.65;5.35;;;8.70;99.90;;;;;;5035972;28;20017;-90
2022/10/31 03:44:44;;;;;;;12.60;6.47;;;8.70;99.90;;;;;;5051417;28;20056;-89
2022/10/31 03:47:10;;;;;;;11.20;6.07;;;8.60;99.90;;;;;;5040996;28;20480;-89
2022/10/31 03:49:37;;;;;;;11.63;5.65;;;8.60;99.90;;;;;;5053088;28;20457;-89
2022/10/31 03:52:44;;;;;;;11.32;5.57;;;8.70;99.90;;;;;;5077571;28;20036;-88
2022/10/31 03:55:36;;;;;;;11.45;5.35;;;8.60;99.90;;;;;;5053561;28;20485;-90
2022/10/31 03:58:07;;;;;;;11.75;5.60;;;8.60;99.90;;;;;;5050216;28;20037;-89
2022/10/31 04:00:37;;;;;;;10.70;5.80;;;8.60;99.90;;;;;;5051582;28;20041;-89
2022/10/31 04:03:03;;;;;;;9.00;5.55;;;8.70;99.90;;;;;;5047046;28;20466;-89
2022/10/31 04:05:31;;;;;;;12.30;6.05;;;8.60;99.90;;;;;;5052550;28;20033;-89
2022/10/31 04:08:04;;;;;;;9.35;5.57;;;8.70;99.90;;;;;;5040406;28;20381;-88
2022/10/31 04:10:33;;;;;;;14.05;5.07;;;8.70;99.90;;;;;;5050963;28;20048;-89
2022/10/31 04:13:10;;;;;;;10.63;5.55;;;8.70;99.90;;;;;;5053064;28;20041;-89
2022/10/31 04:15:44;;;;;;;12.23;6.40;;;8.70;99.90;;;;;;5050688;28;20069;-89
2022/10/31 04:18:10;;;;;;;9.50;5.35;;;8.60;99.90;;;;;;5034549;28;20497;-89
2022/10/31 04:20:39;;;;;;;12.75;7.68;;;8.60;99.90;;;;;;5034054;28;20041;-89
2022/10/31 04:23:18;;;;;;;11.00;5.50;;;8.60;99.90;;;;;;5061340;28;20057;-88
2022/10/31 04:25:44;;;;;;;10.75;5.85;;;8.60;99.90;;;;;;5063297;28;20044;-89
2022/10/31 04:28:11;;;;;;;11.55;5.82;;;8.60;99.90;;;;;;5044520;28;20045;-89
2022/10/31 04:30:37;;;;;;;11.85;6.38;;;8.60;99.90;;;;;;5035473;28;20029;-89
2022/10/31 04:33:03;;;;;;;10.48;5.45;;;8.60;99.90;;;;;;5053178;28;20025;-90
2022/10/31 04:35:30;;;;;;;10.65;5.45;;;8.50;99.90;;;;;;5045879;28;20040;-90
2022/10/31 04:37:56;;;;;;;13.95;6.05;;;8.60;99.90;;;;;;5037592;28;20038;-89
2022/10/31 04:40:22;;;;;;;14.70;6.00;;;8.60;99.90;;;;;;5049301;28;20040;-90
2022/10/31 04:42:54;;;;;;;12.43;5.50;;;8.60;99.90;;;;;;5038138;28;20045;-89
2022/10/31 04:45:21;;;;;;;12.50;5.68;;;8.60;99.90;;;;;;5053361;28;20036;-89
2022/10/31 04:47:51;;;;;;;13.90;6.65;;;8.50;99.90;;;;;;5057331;28;20045;-89
2022/10/31 04:50:18;;;;;;;13.30;6.22;;;8.50;99.90;;;;;;5048054;28;20455;-89
2022/10/31 04:52:46;;;;;;;13.20;6.78;;;8.50;99.90;;;;;;5048872;28;20485;-89
2022/10/31 04:55:15;;;;;;;14.05;6.75;;;8.40;99.90;;;;;;5041179;28;20040;-89
2022/10/31 04:57:59;;;;;;;10.18;6.32;;;8.40;99.90;;;;;;5050549;28;20032;-90
2022/10/31 05:00:26;;;;;;;10.63;6.47;;;8.40;99.90;;;;;;5053263;28;20037;-89
2022/10/31 05:02:55;;;;;;;12.20;7.60;;;8.30;99.90;;;;;;5053423;28;20490;-90
2022/10/31 05:05:25;;;;;;;14.55;5.97;;;8.20;99.90;;;;;;5037013;28;20049;-90
2022/10/31 05:07:52;;;;;;;13.88;6.75;;;8.20;99.90;;;;;;5037292;28;20049;-90
2022/10/31 05:10:22;;;;;;;10.25;5.25;;;8.10;99.90;;;;;;5051842;28;20052;-90
2022/10/31 05:13:00;;;;;;;11.77;6.32;;;8.10;99.90;;;;;;5028923;28;20370;-90
2022/10/31 05:15:50;;;;;;;9.80;6.35;;;8.00;99.90;;;;;;5034436;28;20466;-90
2022/10/31 05:18:35;;;;;;;8.63;5.80;;;8.00;99.90;;;;;;5058305;28;20049;-90
2022/10/31 05:21:20;;;;;;;8.63;5.97;;;8.00;99.90;;;;;;5054231;28;20038;-90
2022/10/31 05:23:54;;;;;;;13.70;6.03;;;7.90;99.90;;;;;;5052274;28;20041;-91
2022/10/31 05:26:23;;;;;;;13.27;6.90;;;7.90;99.90;;;;;;5046549;28;20067;-90
2022/10/31 05:28:50;;;;;;;11.02;5.90;;;7.80;99.90;;;;;;5031906;28;20045;-90
2022/10/31 05:31:17;;;;;;;9.18;5.65;;;7.80;99.90;;;;;;5044557;28;20033;-90
2022/10/31 05:33:43;;;;;;;13.20;6.03;;;7.80;99.90;;;;;;5014709;28;20053;-90
2022/10/31 05:36:27;;;;;;;14.60;6.63;;;7.80;99.90;;;;;;5027337;28;20032;-89
2022/10/31 05:38:57;;;;;;;11.80;6.70;;;7.80;99.90;;;;;;5046660;28;20041;-90
2022/10/31 05:41:27;;;;;;;10.65;5.32;;;7.80;99.90;;;;;;5032066;28;20040;-90
2022/10/31 05:44:03;;;;;;;13.23;7.05;;;7.70;99.90;;;;;;5032974;28;20385;-90
2022/10/31 05:46:32;;;;;;;18.25;6.18;;;7.70;99.90;;;;;;5039956;28;20052;-90
2022/10/31 05:49:17;;;;;;;10.32;5.57;;;7.70;99.90;;;;;;5051519;28;20032;-91
2022/10/31 05:52:21;;;;;;;11.98;6.10;;;7.70;99.90;;;;;;5028999;28;20044;-89
2022/10/31 05:54:54;;;;;;;12.65;7.20;;;7.70;99.90;;;;;;5048484;28;20395;-90
2022/10/31 05:57:20;;;;;;;18.92;8.18;;;7.80;99.90;;;;;;5064055;28;20037;-89
2022/10/31 05:59:47;;;;;;;24.55;8.93;;;7.90;99.90;;;;;;5035371;28;20038;-90
2022/10/31 06:02:14;;;;;;;24.65;9.68;;;7.90;99.90;;;;;;5032219;28;20045;-90
2022/10/31 06:04:58;;;;;;;19.20;8.30;;;7.90;99.90;;;;;;5044920;28;20505;-89
2022/10/31 06:07:26;;;;;;;20.23;9.30;;;7.80;99.90;;;;;;5048150;28;20498;-90
2022/10/31 06:09:52;;;;;;;24.88;9.48;;;7.80;99.90;;;;;;5031582;28;20045;-90
2022/10/31 06:12:21;;;;;;;17.67;8.77;;;7.80;99.90;;;;;;5041575;28;20052;-90
2022/10/31 06:15:06;;;;;;;19.15;9.60;;;7.90;99.90;;;;;;5041093;28;20044;-90
2022/10/31 06:17:36;;;;;;;20.25;9.95;;;7.90;99.90;;;;;;5033414;28;20033;-90
2022/10/31 06:20:25;;;;;;;23.35;10.77;;;7.90;99.90;;;;;;5045767;28;20048;-90
2022/10/31 06:23:02;;;;;;;17.85;10.20;;;8.00;99.90;;;;;;5055555;28;20041;-90
2022/10/31 06:25:29;;;;;;;16.33;10.13;;;8.10;99.90;;;;;;5054231;28;20041;-90
2022/10/31 06:27:56;;;;;;;25.20;11.35;;;8.20;99.90;;;;;;5056620;28;20036;-90
2022/10/31 06:30:26;;;;;;;;;;;8.20;99.90;;;;;;5053434;28;20355;-91
2022/10/31 06:32:52;;;;;;;24.30;11.70;;;8.10;99.90;;;;;;5055466;28;19905;-90
2022/10/31 06:35:20;;;;;;;26.48;12.90;;;8.10;99.90;;;;;;5054981;28;20049;-90
2022/10/31 06:37:54;;;;;;;24.38;13.05;;;8.20;99.90;;;;;;5036854;28;20041;-91
2022/10/31 06:40:30;;;;;;;24.73;12.18;;;8.30;99.90;;;;;;5033654;28;20100;-91
2022/10/31 06:43:15;;;;;;;25.25;13.93;;;8.40;99.90;;;;;;5055151;28;20492;-90
2022/10/31 06:45:41;;;;;;;26.50;14.57;;;8.60;99.90;;;;;;5054490;28;20045;-91
2022/10/31 06:48:42;;;;;;;25.55;12.38;;;8.70;99.90;;;;;;5049041;28;20037;-90
2022/10/31 06:51:18;;;;;;;24.70;12.18;;;8.70;99.90;;;;;;5033563;28;20048;-90
2022/10/31 06:53:45;;;;;;;17.67;11.10;;;8.80;99.90;;;;;;5072797;28;20041;-92
2022/10/31 06:56:12;;;;;;;19.75;11.77;;;8.80;99.90;;;;;;5049504;28;20041;-91
2022/10/31 06:58:46;;;;;;;19.70;11.38;;;8.90;99.90;;;;;;5057082;28;20448;-91
2022/10/31 07:01:13;;;;;;;20.13;12.00;;;9.00;99.90;;;;;;5052077;28;20033;-89
2022/10/31 07:03:40;;;;;;;16.95;11.05;;;9.20;99.90;;;;;;5046244;28;20038;-91
2022/10/31 07:06:07;;;;;;;14.73;10.70;;;9.30;99.90;;;;;;5045803;28;20033;-91
2022/10/31 07:08:34;;;;;;;17.73;9.88;;;9.40;99.90;;;;;;5057980;28;20033;-86
2022/10/31 07:11:00;;;;;;;18.45;10.75;;;9.50;99.90;;;;;;5063299;28;20047;-92
2022/10/31 07:13:28;;;;;;;14.02;9.45;;;9.60;99.90;;;;;;5045566;28;20045;-88
2022/10/31 07:16:06;;;;;;;14.27;9.50;;;9.80;99.90;;;;;;5060806;28;20029;-89
2022/10/31 07:18:34;;;;;;;16.25;9.57;;;10.00;99.90;;;;;;5033219;28;20049;-88
2022/10/31 07:21:00;;;;;;;14.35;8.95;;;10.10;99.90;;;;;;5044918;28;20350;-88
2022/10/31 07:23:27;;;;;;;12.30;8.27;;;10.20;99.90;;;;;;5053264;28;20048;-87
2022/10/31 07:26:16;;;;;;;11.68;7.82;;;10.30;99.90;;;;;;5030415;28;20041;-86
2022/10/31 07:28:47;;;;;;;9.63;6.75;;;10.40;99.90;;;;;;5033070;28;20040;-86
2022/10/31 07:31:14;;;;;;;11.43;7.15;;;10.50;99.90;;;;;;5040625;28;20037;-86
2022/10/31 07:33:42;;;;;;;9.10;6.32;;;10.80;99.90;;;;;;5042316;28;20022;-87
2022/10/31 07:36:37;;;;;;;11.63;7.00;;;11.00;99.90;;;;;;5033323;28;20063;-87
2022/10/31 07:39:04;;;;;;;8.07;6.15;;;11.40;99.90;;;;;;5043326;28;20379;-86
2022/10/31 07:41:32;;;;;;;9.85;6.25;;;11.60;99.90;;;;;;5033818;28;20343;-86
2022/10/31 07:43:59;;;;;;;10.55;5.78;;;11.90;99.90;;;;;;5047694;28;20490;-87
2022/10/31 07:46:54;;;;;;;7.95;5.35;;;12.20;99.90;;;;;;5033208;28;20056;-87
2022/10/31 07:49:46;;;;;;;6.68;5.30;;;12.50;99.90;;;;;;5044316;28;20036;-87
2022/10/31 07:52:25;;;;;;;7.85;5.05;;;13.00;99.90;;;;;;5051348;28;20040;-86
2022/10/31 07:55:17;;;;;;;5.97;5.07;;;13.40;99.90;;;;;;5040100;28;20052;-86
2022/10/31 07:57:55;;;;;;;8.52;5.80;;;13.20;99.90;;;;;;5034554;28;20029;-85
2022/10/31 08:00:22;;;;;;;7.28;5.20;;;13.30;99.90;;;;;;5046435;28;20463;-86
2022/10/31 08:02:57;;;;;;;6.38;4.75;;;13.10;99.90;;;;;;5042130;28;20049;-86
2022/10/31 08:05:53;;;;;;;7.90;5.53;;;13.10;99.90;;;;;;5020033;28;20105;-86
2022/10/31 08:08:42;;;;;;;9.98;5.35;;;13.00;99.90;;;;;;5054781;28;20484;-86
2022/10/31 08:11:09;;;;;;;8.57;5.43;;;12.90;99.90;;;;;;5046373;28;20038;-86
2022/10/31 08:13:35;;;;;;;7.53;5.28;;;13.00;99.90;;;;;;5051961;28;20044;-86
2022/10/31 08:16:04;;;;;;;6.03;4.68;;;13.10;99.90;;;;;;5033133;28;20048;-85
2022/10/31 08:18:32;;;;;;;10.00;5.63;;;13.10;99.90;;;;;;5033258;28;20310;-88
2022/10/31 08:20:58;;;;;;;6.80;5.07;;;13.20;99.90;;;;;;5052468;28;20033;-85
2022/10/31 08:23:25;;;;;;;7.57;4.97;;;13.50;99.90;;;;;;5051950;28;20037;-86
2022/10/31 08:25:53;;;;;;;7.88;5.05;;;13.90;99.90;;;;;;5019954;28;20347;-86
2022/10/31 08:28:20;;;;;;;7.30;4.85;;;13.90;99.90;;;;;;5039016;28;20038;-87
2022/10/31 08:30:49;;;;;;;8.05;5.43;;;14.00;99.90;;;;;;5059704;28;20057;-86
2022/10/31 08:33:34;;;;;;;11.45;4.53;;;14.10;99.90;;;;;;5082390;28;20033;-85
2022/10/31 08:36:19;;;;;;;8.73;4.70;;;14.40;99.90;;;;;;5057218;28;20037;-84
2022/10/31 08:39:04;;;;;;;9.05;4.47;;;14.40;99.90;;;;;;5051271;28;20500;-84
2022/10/31 08:41:30;;;;;;;6.38;4.45;;;14.70;99.90;;;;;;5038348;28;20037;-84
2022/10/31 08:43:58;;;;;;;5.93;4.32;;;14.80;99.90;;;;;;5029838;28;20038;-84
2022/10/31 08:46:25;;;;;;;6.78;4.78;;;15.20;99.90;;;;;;5050093;28;20029;-85
2022/10/31 08:48:53;;;;;;;11.00;6.13;;;15.50;99.90;;;;;;5041153;28;20037;-87
2022/10/31 08:51:20;;;;;;;6.70;4.85;;;15.40;99.90;;;;;;5033685;28;20044;-84
2022/10/31 08:53:50;;;;;;;11.85;5.35;;;15.10;99.90;;;;;;5054709;28;20046;-84
2022/10/31 08:56:25;;;;;;;9.75;5.22;;;14.70;99.90;;;;;;5062798;28;20462;-83
2022/10/31 08:58:53;;;;;;;9.10;5.32;;;15.00;99.90;;;;;;5048596;28;20057;-84
2022/10/31 09:01:25;;;;;;;11.95;5.45;;;14.90;99.90;;;;;;5041513;28;20052;-83
2022/10/31 09:03:51;;;;;;;6.65;5.43;;;14.80;99.90;;;;;;5053574;28;20044;-83
2022/10/31 09:06:18;;;;;;;8.88;5.82;;;14.80;99.90;;;;;;5049288;28;20045;-83
2022/10/31 09:08:47;;;;;;;9.50;5.40;;;14.80;99.90;;;;;;5023221;28;20398;-84
2022/10/31 09:11:13;;;;;;;9.52;5.55;;;15.00;99.90;;;;;;5033225;28;20386;-85
2022/10/31 09:14:14;;;;;;;8.65;5.93;;;15.20;99.90;;;;;;5036846;28;20040;-84
2022/10/31 09:17:00;;;;;;;9.43;6.70;;;14.90;99.90;;;;;;5030681;28;20458;-84
2022/10/31 09:19:42;;;;;;;11.10;6.45;;;14.90;99.90;;;;;;5037185;28;20047;-85
2022/10/31 09:22:08;;;;;;;9.07;5.70;;;14.90;99.90;;;;;;5040104;28;20036;-85
2022/10/31 09:24:35;;;;;;;10.23;7.30;;;15.00;99.90;;;;;;5051136;28;20378;-85
2022/10/31 09:27:01;;;;;;;13.20;6.75;;;15.00;99.90;;;;;;5024174;28;20037;-85
2022/10/31 09:29:28;;;;;;;10.43;5.57;;;15.30;99.90;;;;;;5039265;28;20017;-89
2022/10/31 09:31:58;;;;;;;11.18;6.22;;;15.20;99.90;;;;;;5039116;28;20033;-84
2022/10/31 09:34:28;;;;;;;11.25;6.20;;;15.20;99.90;;;;;;5053188;28;20040;-83
2022/10/31 09:37:11;;;;;;;8.98;6.40;;;15.30;99.90;;;;;;5022077;28;20040;-84
2022/10/31 09:39:37;;;;;;;8.40;6.65;;;15.60;99.90;;;;;;5021481;28;20061;-85
2022/10/31 09:42:20;;;;;;;11.63;7.20;;;15.90;99.90;;;;;;5050704;28;20374;-84
2022/10/31 09:45:08;;;;;;;11.98;7.95;;;16.10;99.90;;;;;;5048989;28;20390;-83
2022/10/31 09:47:52;;;;;;;9.82;7.25;;;16.10;99.90;;;;;;5017188;28;20050;-85
2022/10/31 09:50:41;;;;;;;11.07;7.53;;;16.20;99.90;;;;;;5042696;28;20065;-85
2022/10/31 09:53:42;;;;;;;11.50;7.05;;;15.80;99.90;;;;;;5209973;22;20088;-83
2022/10/31 09:59:13;;;;;;;10.30;7.25;;;15.70;99.90;;;;;;5602089;23;20058;-85
2022/10/31 10:54:45;;;;;;;10.52;6.70;;;17.60;99.90;;;;;;4788165;23;20383;-86
2022/10/31 10:57:36;;;;;;;9.80;7.20;;;17.40;99.90;;;;;;5017492;28;20030;-89
2022/10/31 11:00:27;;;;;;;12.45;7.22;;;17.50;99.90;;;;;;5001619;28;20033;-88
2022/10/31 11:02:53;;;;;;;12.82;6.88;;;17.50;99.90;;;;;;5012346;28;20231;-88
2022/10/31 11:05:38;;;;;;;12.95;6.97;;;17.70;99.90;;;;;;5011812;28;20040;-86
2022/10/31 11:08:05;;;;;;;16.23;6.93;;;17.70;99.90;;;;;;5005785;28;20026;-87
2022/10/31 11:10:33;;;;;;;12.35;7.47;;;17.60;99.90;;;;;;5023485;28;20034;-86
2022/10/31 11:13:13;;;;;;;13.60;7.95;;;17.60;99.90;;;;;;5023570;28;20032;-87
2022/10/31 11:15:58;;;;;;;15.02;7.30;;;17.60;99.90;;;;;;5005149;28;20049;-84
2022/10/31 11:18:28;;;;;;;12.52;8.07;;;17.50;99.90;;;;;;5015592;28;20029;-84
2022/10/31 11:20:57;;;;;;;14.23;7.50;;;17.50;99.90;;;;;;5005757;28;20042;-82
2022/10/31 11:23:25;;;;;;;15.13;7.65;;;17.40;99.90;;;;;;4989119;28;20482;-82
2022/10/31 11:26:22;;;;;;;14.43;7.03;;;17.50;99.90;;;;;;5020521;28;20041;-83
2022/10/31 11:28:58;;;;;;;14.15;7.72;;;17.50;99.90;;;;;;4993387;28;20042;-84
2022/10/31 11:31:26;;;;;;;12.27;6.93;;;17.50;99.90;;;;;;5022032;28;20037;-83
2022/10/31 11:33:59;;;;;;;13.80;6.78;;;17.70;99.90;;;;;;5028242;28;20029;-83
2022/10/31 11:36:36;;;;;;;13.23;7.70;;;17.70;99.90;;;;;;5000496;28;20072;-83
2022/10/31 11:39:13;;;;;;;12.05;8.98;;;17.60;99.90;;;;;;5028834;28;20026;-83
2022/10/31 11:41:42;;;;;;;13.35;7.78;;;17.70;99.90;;;;;;5018744;28;20032;-82
2022/10/31 11:44:23;;;;;;;10.07;7.55;;;17.70;99.90;;;;;;4985420;28;20034;-85
2022/10/31 11:46:58;;;;;;;11.23;7.40;;;18.00;99.90;;;;;;4997543;28;20033;-86
2022/10/31 11:49:30;;;;;;;11.35;7.32;;;18.10;99.90;;;;;;5002113;28;20038;-86
2022/10/31 11:52:00;;;;;;;13.13;7.95;;;18.00;99.90;;;;;;4996319;28;20038;-84
2022/10/31 11:54:51;;;;;;;11.63;7.60;;;18.10;99.90;;;;;;5021548;28;20044;-86
2022/10/31 11:57:42;;;;;;;15.35;8.75;;;18.20;99.90;;;;;;5018811;28;20037;-86
2022/10/31 12:00:24;;;;;;;15.93;9.30;;;18.00;99.90;;;;;;5009446;28;20030;-90
2022/10/31 12:02:51;;;;;;;17.38;8.90;;;18.00;99.90;;;;;;4996967;28;20057;-91
2022/10/31 12:05:32;;;;;;;15.38;9.00;;;17.70;99.90;;;;;;5017617;28;20025;-90
2022/10/31 12:07:59;;;;;;;14.80;9.05;;;17.70;99.90;;;;;;5006293;28;20037;-92
2022/10/31 12:10:36;;;;;;;13.75;8.55;;;17.60;99.90;;;;;;5008858;28;20030;-90
2022/10/31 12:13:41;;;;;;;15.38;8.88;;;17.50;99.90;;;;;;5029273;28;20038;-89
2022/10/31 12:16:36;;;;;;;10.82;8.32;;;17.60;99.90;;;;;;4972864;28;20045;-84
2022/10/31 12:19:28;;;;;;;20.00;9.45;;;17.50;99.90;;;;;;5013218;28;20477;-87
2022/10/31 12:22:16;;;;;;;18.45;10.05;;;17.40;99.90;;;;;;4993708;28;20034;-85
2022/10/31 12:25:03;;;;;;;13.25;8.80;;;17.40;99.90;;;;;;5019391;28;20030;-90
2022/10/31 12:27:36;;;;;;;12.50;8.93;;;17.50;99.90;;;;;;4998095;28;20049;-94
2022/10/31 12:30:16;;;;;;;18.00;9.55;;;17.50;99.90;;;;;;5014774;28;20428;-89
2022/10/31 12:33:01;;;;;;;12.68;8.75;;;17.50;99.90;;;;;;5015327;28;20034;-96
2022/10/31 12:35:37;;;;;;;16.85;9.70;;;17.50;99.90;;;;;;5017849;28;20041;-92
2022/10/31 12:38:19;;;;;;;16.88;9.32;;;17.50;99.90;;;;;;5022442;28;20036;-89
2022/10/31 12:41:17;;;;;;;13.02;8.55;;;17.60;99.90;;;;;;4977588;28;20039;-90
2022/10/31 12:43:57;;;;;;;16.33;8.43;;;17.80;99.90;;;;;;4979184;28;20045;-91
2022/10/31 12:46:55;;;;;;;15.05;8.68;;;17.90;99.90;;;;;;5017208;28;20033;-91
2022/10/31 12:49:52;;;;;;;13.02;8.15;;;18.00;99.90;;;;;;4984231;28;20049;-90
2022/10/31 12:53:00;;;;;;;15.07;7.80;;;17.80;99.90;;;;;;5014981;28;20030;-88
2022/10/31 12:55:56;;;;;;;12.45;7.60;;;17.80;99.90;;;;;;5012683;28;20033;-87
2022/10/31 12:58:32;;;;;;;12.98;7.82;;;17.70;99.90;;;;;;5020849;28;20025;-89
2022/10/31 13:01:22;;;;;;;10.93;7.55;;;17.50;99.90;;;;;;5003570;28;20037;-87
2022/10/31 13:03:52;;;;;;;19.45;9.30;;;17.50;99.90;;;;;;5027883;28;20356;-88
2022/10/31 13:06:32;;;;;;;12.10;9.15;;;17.60;99.90;;;;;;5020858;28;20489;-86
2022/10/31 13:09:02;;;;;;;12.18;8.38;;;17.60;99.90;;;;;;5039532;28;20065;-86
2022/10/31 13:11:35;;;;;;;13.27;9.07;;;17.60;99.90;;;;;;5018372;28;20041;-86
2022/10/31 13:14:07;;;;;;;12.73;7.40;;;17.60;99.90;;;;;;5030345;28;20459;-85
2022/10/31 13:16:38;;;;;;;10.57;6.35;;;17.50;99.90;;;;;;5038063;28;20056;-86
2022/10/31 13:19:27;;;;;;;14.70;7.93;;;17.50;99.90;;;;;;5031186;28;20064;-88
2022/10/31 13:22:11;;;;;;;18.10;7.65;;;17.50;99.90;;;;;;5013466;28;20040;-87
2022/10/31 13:24:52;;;;;;;18.52;8.15;;;17.50;99.90;;;;;;5016093;28;20025;-86
2022/10/31 13:27:30;;;;;;;13.75;8.80;;;17.50;99.90;;;;;;5013241;28;20037;-84
2022/10/31 13:30:02;;;;;;;13.57;7.78;;;17.50;99.90;;;;;;5022440;28;20036;-85
2022/10/31 13:32:41;;;;;;;14.15;8.85;;;17.50;99.90;;;;;;5002623;28;20037;-85
2022/10/31 13:35:21;;;;;;;15.00;8.48;;;17.40;99.90;;;;;;5013238;28;20057;-85
2022/10/31 13:37:56;;;;;;;17.35;10.05;;;17.40;99.90;;;;;;5009284;28;20030;-85
2022/10/31 13:40:25;;;;;;;15.23;9.05;;;17.40;99.90;;;;;;5022026;28;20056;-84
2022/10/31 13:43:28;;;;;;;13.20;8.75;;;17.40;99.90;;;;;;5032888;28;20033;-85
2022/10/31 13:45:55;;;;;;;16.00;8.50;;;17.40;99.90;;;;;;5031132;28;20090;-84
2022/10/31 13:48:24;;;;;;;15.60;8.38;;;17.50;99.90;;;;;;4997722;28;20034;-84
2022/10/31 13:51:04;;;;;;;12.40;7.55;;;17.70;99.90;;;;;;5010519;28;20030;-84
2022/10/31 13:53:58;;;;;;;15.55;7.65;;;18.10;99.90;;;;;;5027684;28;20045;-84
2022/10/31 13:56:36;;;;;;;15.82;8.25;;;18.40;99.90;;;;;;5025792;28;20378;-85
2022/10/31 13:59:09;;;;;;;11.77;7.22;;;18.30;99.90;;;;;;5011970;28;20351;-83
2022/10/31 14:01:36;;;;;;;13.50;7.57;;;18.50;99.90;;;;;;5002600;28;20029;-83
2022/10/31 14:04:04;;;;;;;14.63;8.75;;;18.80;99.90;;;;;;5000950;28;20030;-83
2022/10/31 14:06:59;;;;;;;14.30;9.05;;;18.60;99.40;;;;;;5019148;28;20041;-84
2022/10/31 14:09:54;;;;;;;20.35;7.55;;;18.40;99.90;;;;;;5019981;28;20032;-83
2022/10/31 14:12:42;;;;;;;15.50;9.25;;;18.40;99.90;;;;;;5008715;28;20046;-83
2022/10/31 14:15:26;;;;;;;17.63;9.05;;;18.40;99.90;;;;;;5021926;28;20041;-84
2022/10/31 14:18:03;;;;;;;19.80;10.18;;;18.50;99.90;;;;;;5015097;28;20022;-82